sensor_id;sensor_type;location;lat;lon;timestamp;pressure;altitude;pressure_sealevel;temperature;humidity
17615;BME280;8926;49.720;6.576;2023-07-08T00:00:44;99657.34;;;22.05;49.75
17615;BME280;8926;49.720;6.576;2023-07-08T00:03:10;99654.16;;;22.02;49.39
17615;BME280;8926;49.720;6.576;2023-07-08T00:05:36;99653.94;;;21.95;49.65
17615;BME280;8926;49.720;6.576;2023-07-08T00:08:02;99654.94;;;21.94;49.45
17615;BME280;8926;49.720;6.576;2023-07-08T00:10:28;99646.28;;;21.92;49.56
17615;BME280;8926;49.720;6.576;2023-07-08T00:12:56;99647.78;;;21.94;48.86
17615;BME280;8926;49.720;6.576;2023-07-08T00:15:25;99649.25;;;21.89;49.37
17615;BME280;8926;49.720;6.576;2023-07-08T00:17:51;99639.91;;;21.77;49.30
17615;BME280;8926;49.720;6.576;2023-07-08T00:20:23;99645.56;;;21.74;49.35
17615;BME280;8926;49.720;6.576;2023-07-08T00:22:54;99644.22;;;21.70;50.72
17615;BME280;8926;49.720;6.576;2023-07-08T00:25:20;99638.25;;;21.76;49.87
17615;BME280;8926;49.720;6.576;2023-07-08T00:27:46;99644.22;;;21.70;50.15
17615;BME280;8926;49.720;6.576;2023-07-08T00:30:31;99645.88;;;21.71;51.28
17615;BME280;8926;49.720;6.576;2023-07-08T00:32:57;99636.06;;;21.71;50.76
17615;BME280;8926;49.720;6.576;2023-07-08T00:35:31;99636.59;;;21.75;50.46
17615;BME280;8926;49.720;6.576;2023-07-08T00:37:57;99630.94;;;21.78;50.81
17615;BME280;8926;49.720;6.576;2023-07-08T00:40:37;99625.78;;;21.76;51.41
17615;BME280;8926;49.720;6.576;2023-07-08T00:43:05;99625.63;;;21.78;50.92
17615;BME280;8926;49.720;6.576;2023-07-08T00:45:37;99626.63;;;21.77;51.55
17615;BME280;8926;49.720;6.576;2023-07-08T00:50:34;99615.31;;;21.75;50.75
17615;BME280;8926;49.720;6.576;2023-07-08T00:53:28;99617.94;;;21.66;52.07
17615;BME280;8926;49.720;6.576;2023-07-08T00:56:00;99612.56;;;21.58;51.20
17615;BME280;8926;49.720;6.576;2023-07-08T00:58:31;99617.56;;;21.53;51.61
17615;BME280;8926;49.720;6.576;2023-07-08T01:00:58;99614.25;;;21.51;51.57
17615;BME280;8926;49.720;6.576;2023-07-08T01:03:25;99615.91;;;21.52;52.50
17615;BME280;8926;49.720;6.576;2023-07-08T01:05:53;99617.88;;;21.50;51.39
17615;BME280;8926;49.720;6.576;2023-07-08T01:08:21;99615.38;;;21.49;51.56
17615;BME280;8926;49.720;6.576;2023-07-08T01:10:56;99603.56;;;21.43;51.82
17615;BME280;8926;49.720;6.576;2023-07-08T01:13:23;99606.22;;;21.43;51.04
17615;BME280;8926;49.720;6.576;2023-07-08T01:15:49;99607.38;;;21.41;51.61
17615;BME280;8926;49.720;6.576;2023-07-08T01:18:16;99608.19;;;21.41;52.54
17615;BME280;8926;49.720;6.576;2023-07-08T01:20:43;99604.88;;;21.39;52.00
17615;BME280;8926;49.720;6.576;2023-07-08T01:23:10;99604.88;;;21.39;51.79
17615;BME280;8926;49.720;6.576;2023-07-08T01:25:36;99609.88;;;21.42;52.20
17615;BME280;8926;49.720;6.576;2023-07-08T01:28:02;99609.88;;;21.42;51.45
17615;BME280;8926;49.720;6.576;2023-07-08T01:30:30;99616.19;;;21.41;51.85
17615;BME280;8926;49.720;6.576;2023-07-08T01:32:59;99611.53;;;21.43;52.02
17615;BME280;8926;49.720;6.576;2023-07-08T01:35:27;99613.19;;;21.44;51.66
17615;BME280;8926;49.720;6.576;2023-07-08T01:37:56;99605.38;;;21.43;51.23
17615;BME280;8926;49.720;6.576;2023-07-08T01:42:50;99612.84;;;21.39;51.17
17615;BME280;8926;49.720;6.576;2023-07-08T01:45:18;99611.19;;;21.38;51.70
17615;BME280;8926;49.720;6.576;2023-07-08T01:47:48;99613.84;;;21.38;51.64
17615;BME280;8926;49.720;6.576;2023-07-08T01:50:15;99613.16;;;21.36;51.58
17615;BME280;8926;49.720;6.576;2023-07-08T01:52:40;99611.47;;;21.27;51.46
17615;BME280;8926;49.720;6.576;2023-07-08T01:55:06;99616.56;;;21.20;51.71
17615;BME280;8926;49.720;6.576;2023-07-08T01:57:32;99607.38;;;21.15;51.76
17615;BME280;8926;49.720;6.576;2023-07-08T01:59:57;99621.03;;;21.20;52.39
17615;BME280;8926;49.720;6.576;2023-07-08T02:02:22;99613.06;;;21.20;51.96
17615;BME280;8926;49.720;6.576;2023-07-08T02:04:49;99624.66;;;21.19;52.26
17615;BME280;8926;49.720;6.576;2023-07-08T02:07:15;99622.72;;;21.21;51.31
17615;BME280;8926;49.720;6.576;2023-07-08T02:09:40;99617.53;;;21.19;51.59
17615;BME280;8926;49.720;6.576;2023-07-08T02:12:06;99613.75;;;21.22;52.10
17615;BME280;8926;49.720;6.576;2023-07-08T02:14:31;99618.00;;;21.15;52.27
17615;BME280;8926;49.720;6.576;2023-07-08T02:16:56;99619.00;;;21.14;52.31
17615;BME280;8926;49.720;6.576;2023-07-08T02:19:22;99612.69;;;21.15;52.00
17615;BME280;8926;49.720;6.576;2023-07-08T02:21:47;99614.97;;;21.10;51.98
17615;BME280;8926;49.720;6.576;2023-07-08T02:24:12;99617.63;;;21.10;52.70
17615;BME280;8926;49.720;6.576;2023-07-08T02:26:38;99616.97;;;21.08;51.52
17615;BME280;8926;49.720;6.576;2023-07-08T02:29:03;99619.47;;;21.09;52.68
17615;BME280;8926;49.720;6.576;2023-07-08T02:31:28;99620.13;;;21.11;51.80
17615;BME280;8926;49.720;6.576;2023-07-08T02:33:54;99611.34;;;21.11;52.21
17615;BME280;8926;49.720;6.576;2023-07-08T02:36:20;99616.66;;;21.11;52.16
17615;BME280;8926;49.720;6.576;2023-07-08T02:38:45;99613.84;;;21.12;51.54
17615;BME280;8926;49.720;6.576;2023-07-08T02:41:10;99614.97;;;21.10;51.71
17615;BME280;8926;49.720;6.576;2023-07-08T02:43:37;99624.25;;;21.06;51.73
17615;BME280;8926;49.720;6.576;2023-07-08T02:46:03;99626.25;;;21.04;51.29
17615;BME280;8926;49.720;6.576;2023-07-08T02:48:28;99624.91;;;20.99;52.13
17615;BME280;8926;49.720;6.576;2023-07-08T02:51:01;99627.50;;;20.91;51.98
17615;BME280;8926;49.720;6.576;2023-07-08T02:53:27;99634.94;;;20.88;51.02
17615;BME280;8926;49.720;6.576;2023-07-08T02:55:53;99632.97;;;20.90;51.86
17615;BME280;8926;49.720;6.576;2023-07-08T02:58:18;99636.75;;;20.87;51.42
17615;BME280;8926;49.720;6.576;2023-07-08T03:00:44;99633.41;;;20.85;51.79
17615;BME280;8926;49.720;6.576;2023-07-08T03:03:09;99639.56;;;20.86;52.27
17615;BME280;8926;49.720;6.576;2023-07-08T03:05:34;99640.72;;;20.83;52.90
17615;BME280;8926;49.720;6.576;2023-07-08T03:08:00;99649.97;;;20.79;53.88
17615;BME280;8926;49.720;6.576;2023-07-08T03:10:25;99642.69;;;20.81;55.32
17615;BME280;8926;49.720;6.576;2023-07-08T03:12:51;99643.66;;;20.80;54.70
17615;BME280;8926;49.720;6.576;2023-07-08T03:15:16;99638.69;;;20.77;52.97
17615;BME280;8926;49.720;6.576;2023-07-08T03:17:41;99642.00;;;20.79;53.59
17615;BME280;8926;49.720;6.576;2023-07-08T03:20:09;99642.69;;;20.81;53.41
17615;BME280;8926;49.720;6.576;2023-07-08T03:22:35;99649.66;;;20.82;53.22
17615;BME280;8926;49.720;6.576;2023-07-08T03:25:00;99641.00;;;20.80;54.25
17615;BME280;8926;49.720;6.576;2023-07-08T03:27:26;99647.50;;;20.78;54.94
17615;BME280;8926;49.720;6.576;2023-07-08T03:29:51;99644.66;;;20.79;55.62
17615;BME280;8926;49.720;6.576;2023-07-08T03:32:16;99645.00;;;20.76;54.61
17615;BME280;8926;49.720;6.576;2023-07-08T03:34:42;99631.34;;;20.71;55.31
17615;BME280;8926;49.720;6.576;2023-07-08T03:37:08;99628.00;;;20.69;54.60
17615;BME280;8926;49.720;6.576;2023-07-08T03:39:34;99619.66;;;20.64;55.86
17615;BME280;8926;49.720;6.576;2023-07-08T03:42:00;99631.78;;;20.66;55.17
17615;BME280;8926;49.720;6.576;2023-07-08T03:44:25;99628.31;;;20.66;55.43
17615;BME280;8926;49.720;6.576;2023-07-08T03:46:50;99637.88;;;20.59;55.82
17615;BME280;8926;49.720;6.576;2023-07-08T03:49:17;99642.59;;;20.47;57.28
17615;BME280;8926;49.720;6.576;2023-07-08T03:51:46;99638.03;;;20.40;58.24
17615;BME280;8926;49.720;6.576;2023-07-08T03:54:13;99643.91;;;20.33;58.42
17615;BME280;8926;49.720;6.576;2023-07-08T03:56:39;99642.53;;;20.29;59.44
17615;BME280;8926;49.720;6.576;2023-07-08T03:59:04;99649.22;;;20.33;59.86
17615;BME280;8926;49.720;6.576;2023-07-08T04:01:30;99655.22;;;20.36;59.30
17615;BME280;8926;49.720;6.576;2023-07-08T04:03:57;99653.53;;;20.34;58.73
17615;BME280;8926;49.720;6.576;2023-07-08T04:06:23;99648.69;;;20.30;60.22
17615;BME280;8926;49.720;6.576;2023-07-08T04:08:49;99646.19;;;20.28;60.54
17615;BME280;8926;49.720;6.576;2023-07-08T04:11:17;99642.53;;;20.29;60.81
17615;BME280;8926;49.720;6.576;2023-07-08T04:13:42;99643.09;;;20.33;61.02
17615;BME280;8926;49.720;6.576;2023-07-08T04:16:16;99648.91;;;20.37;62.13
17615;BME280;8926;49.720;6.576;2023-07-08T04:18:42;99643.63;;;20.37;61.35
17615;BME280;8926;49.720;6.576;2023-07-08T04:21:07;99645.31;;;20.38;61.75
17615;BME280;8926;49.720;6.576;2023-07-08T04:23:32;99646.69;;;20.42;62.07
17615;BME280;8926;49.720;6.576;2023-07-08T04:25:58;99648.34;;;20.43;62.16
17615;BME280;8926;49.720;6.576;2023-07-08T04:28:24;99639.41;;;20.44;61.69
17615;BME280;8926;49.720;6.576;2023-07-08T04:30:49;99644.41;;;20.47;60.65
17615;BME280;8926;49.720;6.576;2023-07-08T04:33:15;99658.38;;;20.49;62.46
17615;BME280;8926;49.720;6.576;2023-07-08T04:35:42;99657.22;;;20.51;59.82
17615;BME280;8926;49.720;6.576;2023-07-08T04:38:18;99660.34;;;20.47;60.12
17615;BME280;8926;49.720;6.576;2023-07-08T04:40:44;99669.28;;;20.46;62.09
17615;BME280;8926;49.720;6.576;2023-07-08T04:43:10;99668.97;;;20.49;63.29
17615;BME280;8926;49.720;6.576;2023-07-08T04:45:39;99672.97;;;20.53;61.88
17615;BME280;8926;49.720;6.576;2023-07-08T04:48:05;99680.63;;;20.56;60.85
17615;BME280;8926;49.720;6.576;2023-07-08T04:50:41;99678.53;;;20.77;60.75
17615;BME280;8926;49.720;6.576;2023-07-08T04:53:07;99673.69;;;20.98;59.73
17615;BME280;8926;49.720;6.576;2023-07-08T04:55:32;99672.41;;;21.03;59.13
17615;BME280;8926;49.720;6.576;2023-07-08T04:57:58;99676.34;;;20.98;59.86
17615;BME280;8926;49.720;6.576;2023-07-08T05:00:23;99682.97;;;20.94;59.20
17615;BME280;8926;49.720;6.576;2023-07-08T05:02:48;99679.78;;;20.91;58.94
17615;BME280;8926;49.720;6.576;2023-07-08T05:05:14;99683.56;;;20.88;59.62
17615;BME280;8926;49.720;6.576;2023-07-08T05:07:39;99677.81;;;21.19;58.80
17615;BME280;8926;49.720;6.576;2023-07-08T05:10:05;99679.41;;;21.55;58.06
17615;BME280;8926;49.720;6.576;2023-07-08T05:12:30;99683.69;;;21.90;57.27
17615;BME280;8926;49.720;6.576;2023-07-08T05:14:56;99685.97;;;22.19;55.90
17615;BME280;8926;49.720;6.576;2023-07-08T05:17:21;99684.34;;;22.43;55.49
17615;BME280;8926;49.720;6.576;2023-07-08T05:19:46;99693.50;;;22.64;55.38
17615;BME280;8926;49.720;6.576;2023-07-08T05:22:15;99692.88;;;22.87;54.83
17615;BME280;8926;49.720;6.576;2023-07-08T05:24:42;99696.72;;;23.09;53.82
17615;BME280;8926;49.720;6.576;2023-07-08T05:27:07;99700.38;;;23.08;54.47
17615;BME280;8926;49.720;6.576;2023-07-08T05:29:34;99695.34;;;23.21;54.48
17615;BME280;8926;49.720;6.576;2023-07-08T05:31:59;99696.63;;;23.41;53.18
17615;BME280;8926;49.720;6.576;2023-07-08T05:34:24;99688.28;;;23.60;52.61
17615;BME280;8926;49.720;6.576;2023-07-08T05:36:50;99690.19;;;23.83;52.33
17615;BME280;8926;49.720;6.576;2023-07-08T05:39:15;99680.13;;;23.93;51.72
17615;BME280;8926;49.720;6.576;2023-07-08T05:41:41;99682.66;;;24.17;51.78
17615;BME280;8926;49.720;6.576;2023-07-08T05:44:06;99679.91;;;24.42;50.79
17615;BME280;8926;49.720;6.576;2023-07-08T05:46:31;99678.59;;;24.60;50.07
17615;BME280;8926;49.720;6.576;2023-07-08T05:48:56;99686.06;;;24.65;49.82
17615;BME280;8926;49.720;6.576;2023-07-08T05:51:22;99680.22;;;24.84;49.80
17615;BME280;8926;49.720;6.576;2023-07-08T05:53:47;99676.91;;;24.82;49.53
17615;BME280;8926;49.720;6.576;2023-07-08T05:56:12;99671.44;;;24.98;49.69
17615;BME280;8926;49.720;6.576;2023-07-08T05:58:38;99678.31;;;25.16;49.56
17615;BME280;8926;49.720;6.576;2023-07-08T06:01:03;99683.19;;;25.27;49.34
17615;BME280;8926;49.720;6.576;2023-07-08T06:03:29;99671.75;;;25.48;49.52
17615;BME280;8926;49.720;6.576;2023-07-08T06:05:54;99670.78;;;25.63;48.72
17615;BME280;8926;49.720;6.576;2023-07-08T06:08:19;99668.16;;;25.55;48.97
17615;BME280;8926;49.720;6.576;2023-07-08T06:10:45;99677.47;;;25.30;48.97
17615;BME280;8926;49.720;6.576;2023-07-08T06:13:11;99670.09;;;25.47;48.79
17615;BME280;8926;49.720;6.576;2023-07-08T06:15:37;99680.53;;;25.56;48.88
17615;BME280;8926;49.720;6.576;2023-07-08T06:18:02;99674.94;;;25.66;48.60
17615;BME280;8926;49.720;6.576;2023-07-08T06:20:29;99679.78;;;25.33;48.86
17615;BME280;8926;49.720;6.576;2023-07-08T06:22:54;99687.09;;;25.39;48.55
17615;BME280;8926;49.720;6.576;2023-07-08T06:25:20;99706.59;;;25.10;48.34
17615;BME280;8926;49.720;6.576;2023-07-08T06:27:45;99711.81;;;25.03;49.05
17615;BME280;8926;49.720;6.576;2023-07-08T06:30:10;99714.25;;;25.28;48.42
17615;BME280;8926;49.720;6.576;2023-07-08T06:32:36;99714.19;;;25.36;48.98
17615;BME280;8926;49.720;6.576;2023-07-08T06:35:01;99723.81;;;25.60;47.79
17615;BME280;8926;49.720;6.576;2023-07-08T06:37:26;99731.84;;;25.22;48.63
17615;BME280;8926;49.720;6.576;2023-07-08T06:39:52;99731.63;;;25.32;48.32
17615;BME280;8926;49.720;6.576;2023-07-08T06:42:17;99730.50;;;25.26;49.05
17615;BME280;8926;49.720;6.576;2023-07-08T06:44:43;99732.34;;;25.26;49.06
17615;BME280;8926;49.720;6.576;2023-07-08T06:47:18;99728.88;;;25.40;48.34
17615;BME280;8926;49.720;6.576;2023-07-08T06:49:45;99730.38;;;25.87;48.19
17615;BME280;8926;49.720;6.576;2023-07-08T06:52:11;99727.66;;;26.31;47.11
17615;BME280;8926;49.720;6.576;2023-07-08T06:54:36;99722.28;;;26.67;46.36
17615;BME280;8926;49.720;6.576;2023-07-08T06:57:01;99730.84;;;26.98;45.69
17615;BME280;8926;49.720;6.576;2023-07-08T06:59:27;99738.34;;;27.10;45.05
17615;BME280;8926;49.720;6.576;2023-07-08T07:01:53;99735.25;;;27.34;44.62
17615;BME280;8926;49.720;6.576;2023-07-08T07:04:19;99735.25;;;27.34;44.77
17615;BME280;8926;49.720;6.576;2023-07-08T07:06:45;99726.59;;;27.38;44.69
17615;BME280;8926;49.720;6.576;2023-07-08T07:09:10;99721.41;;;27.58;44.34
17615;BME280;8926;49.720;6.576;2023-07-08T07:11:35;99725.31;;;27.97;43.54
17615;BME280;8926;49.720;6.576;2023-07-08T07:14:01;99725.75;;;28.00;42.46
17615;BME280;8926;49.720;6.576;2023-07-08T07:16:27;99733.22;;;28.05;42.18
17615;BME280;8926;49.720;6.576;2023-07-08T07:18:52;99737.38;;;28.14;42.18
17615;BME280;8926;49.720;6.576;2023-07-08T07:21:17;99735.41;;;28.36;42.34
17615;BME280;8926;49.720;6.576;2023-07-08T07:23:43;99731.78;;;28.57;41.96
17615;BME280;8926;49.720;6.576;2023-07-08T07:26:08;99726.38;;;28.63;40.57
17615;BME280;8926;49.720;6.576;2023-07-08T07:28:34;99726.41;;;28.70;41.06
17615;BME280;8926;49.720;6.576;2023-07-08T07:31:00;99714.44;;;28.92;40.99
17615;BME280;8926;49.720;6.576;2023-07-08T07:33:26;99732.88;;;29.09;39.78
17615;BME280;8926;49.720;6.576;2023-07-08T07:35:51;99733.06;;;29.20;39.19
17615;BME280;8926;49.720;6.576;2023-07-08T07:38:17;99729.75;;;29.12;38.25
17615;BME280;8926;49.720;6.576;2023-07-08T07:40:43;99733.50;;;29.30;37.79
17615;BME280;8926;49.720;6.576;2023-07-08T07:43:08;99724.38;;;29.51;38.13
17615;BME280;8926;49.720;6.576;2023-07-08T07:45:34;99726.81;;;29.73;38.79
17615;BME280;8926;49.720;6.576;2023-07-08T07:48:00;99725.16;;;29.78;38.15
17615;BME280;8926;49.720;6.576;2023-07-08T07:50:25;99727.84;;;29.78;37.89
17615;BME280;8926;49.720;6.576;2023-07-08T07:52:51;99725.94;;;29.98;37.68
17615;BME280;8926;49.720;6.576;2023-07-08T07:55:16;99726.25;;;30.15;36.97
17615;BME280;8926;49.720;6.576;2023-07-08T07:57:42;99722.03;;;30.32;37.21
17615;BME280;8926;49.720;6.576;2023-07-08T08:00:11;99729.00;;;30.47;36.59
17615;BME280;8926;49.720;6.576;2023-07-08T08:02:36;99727.31;;;30.59;37.29
17615;BME280;8926;49.720;6.576;2023-07-08T08:05:02;99721.38;;;30.75;36.49
17615;BME280;8926;49.720;6.576;2023-07-08T08:07:27;99730.47;;;30.81;35.79
17615;BME280;8926;49.720;6.576;2023-07-08T08:09:53;99726.28;;;30.91;35.91
17615;BME280;8926;49.720;6.576;2023-07-08T08:12:18;99731.72;;;31.10;36.38
17615;BME280;8926;49.720;6.576;2023-07-08T08:14:43;99724.78;;;31.20;35.84
17615;BME280;8926;49.720;6.576;2023-07-08T08:17:09;99722.06;;;31.45;36.15
17615;BME280;8926;49.720;6.576;2023-07-08T08:19:34;99729.00;;;31.59;34.24
17615;BME280;8926;49.720;6.576;2023-07-08T08:22:00;99724.75;;;31.70;34.70
17615;BME280;8926;49.720;6.576;2023-07-08T08:24:25;99725.72;;;31.76;34.65
17615;BME280;8926;49.720;6.576;2023-07-08T08:26:50;99717.91;;;31.86;35.26
17615;BME280;8926;49.720;6.576;2023-07-08T08:29:16;99737.31;;;31.58;34.19
17615;BME280;8926;49.720;6.576;2023-07-08T08:31:41;99727.34;;;31.58;34.74
17615;BME280;8926;49.720;6.576;2023-07-08T08:34:06;99733.69;;;31.46;34.57
17615;BME280;8926;49.720;6.576;2023-07-08T08:36:34;99735.53;;;31.27;35.86
17615;BME280;8926;49.720;6.576;2023-07-08T08:39:02;99739.41;;;31.13;35.76
17615;BME280;8926;49.720;6.576;2023-07-08T08:41:32;99734.00;;;31.13;35.32
17615;BME280;8926;49.720;6.576;2023-07-08T08:44:00;99731.00;;;31.21;35.82
17615;BME280;8926;49.720;6.576;2023-07-08T08:46:39;99727.25;;;31.22;35.39
17615;BME280;8926;49.720;6.576;2023-07-08T08:51:48;99723.78;;;31.40;35.47
17615;BME280;8926;49.720;6.576;2023-07-08T08:54:14;99721.88;;;31.65;35.13
17615;BME280;8926;49.720;6.576;2023-07-08T08:59:42;99713.25;;;31.93;34.47
17615;BME280;8926;49.720;6.576;2023-07-08T09:04:47;99713.09;;;32.06;34.58
17615;BME280;8926;49.720;6.576;2023-07-08T09:07:16;99701.81;;;32.09;34.95
17615;BME280;8926;49.720;6.576;2023-07-08T09:09:50;99712.75;;;32.32;34.63
17615;BME280;8926;49.720;6.576;2023-07-08T09:12:20;99704.72;;;32.56;34.47
17615;BME280;8926;49.720;6.576;2023-07-08T09:14:50;99695.97;;;32.72;34.29
17615;BME280;8926;49.720;6.576;2023-07-08T09:22:32;99698.41;;;32.62;34.27
17615;BME280;8926;49.720;6.576;2023-07-08T09:27:40;99699.44;;;33.02;34.10
17615;BME280;8926;49.720;6.576;2023-07-08T09:30:13;99700.47;;;33.01;33.81
17615;BME280;8926;49.720;6.576;2023-07-08T09:32:39;99692.94;;;32.80;34.25
17615;BME280;8926;49.720;6.576;2023-07-08T09:35:07;99688.25;;;32.87;33.67
17615;BME280;8926;49.720;6.576;2023-07-08T09:37:37;99693.19;;;32.90;33.75
17615;BME280;8926;49.720;6.576;2023-07-08T09:40:14;99698.28;;;32.98;33.69
17615;BME280;8926;49.720;6.576;2023-07-08T09:42:42;99702.25;;;33.08;34.32
17615;BME280;8926;49.720;6.576;2023-07-08T09:45:17;99697.22;;;33.23;33.62
17615;BME280;8926;49.720;6.576;2023-07-08T09:47:44;99697.81;;;33.36;33.54
17615;BME280;8926;49.720;6.576;2023-07-08T09:50:28;99691.06;;;33.62;33.63
17615;BME280;8926;49.720;6.576;2023-07-08T09:52:56;99699.78;;;33.64;33.03
17615;BME280;8926;49.720;6.576;2023-07-08T09:55:26;99699.47;;;33.49;33.78
17615;BME280;8926;49.720;6.576;2023-07-08T09:57:53;99690.59;;;33.65;34.00
17615;BME280;8926;49.720;6.576;2023-07-08T10:00:33;99696.81;;;33.89;33.77
17615;BME280;8926;49.720;6.576;2023-07-08T10:03:16;99697.09;;;34.16;33.01
17615;BME280;8926;49.720;6.576;2023-07-08T10:05:43;99696.13;;;34.22;33.38
17615;BME280;8926;49.720;6.576;2023-07-08T10:08:16;99688.44;;;34.31;32.79
17615;BME280;8926;49.720;6.576;2023-07-08T10:10:42;99685.66;;;34.43;33.07
17615;BME280;8926;49.720;6.576;2023-07-08T10:13:15;99689.16;;;34.55;33.02
17615;BME280;8926;49.720;6.576;2023-07-08T10:15:46;99696.38;;;34.66;33.26
17615;BME280;8926;49.720;6.576;2023-07-08T10:18:16;99692.75;;;34.60;32.46
17615;BME280;8926;49.720;6.576;2023-07-08T10:20:57;99691.78;;;34.66;33.21
17615;BME280;8926;49.720;6.576;2023-07-08T10:24:10;99694.09;;;34.75;32.79
17615;BME280;8926;49.720;6.576;2023-07-08T10:26:38;99689.38;;;34.82;32.52
17615;BME280;8926;49.720;6.576;2023-07-08T10:34:57;99687.34;;;34.60;32.68
17615;BME280;8926;49.720;6.576;2023-07-08T10:40:12;99685.28;;;34.51;33.32
17615;BME280;8926;49.720;6.576;2023-07-08T10:45:15;99678.63;;;34.75;33.53
17615;BME280;8926;49.720;6.576;2023-07-08T10:59:56;99679.28;;;35.16;32.86
17615;BME280;8926;49.720;6.576;2023-07-08T11:08:06;99680.84;;;35.12;32.79
17615;BME280;8926;49.720;6.576;2023-07-08T11:10:37;99672.22;;;35.15;33.62
17615;BME280;8926;49.720;6.576;2023-07-08T11:13:11;99671.22;;;35.21;33.11
17615;BME280;8926;49.720;6.576;2023-07-08T11:15:51;99670.00;;;35.12;32.64
17615;BME280;8926;49.720;6.576;2023-07-08T11:20:55;99673.88;;;35.16;32.21
17615;BME280;8926;49.720;6.576;2023-07-08T11:23:36;99664.81;;;35.27;32.65
17615;BME280;8926;49.720;6.576;2023-07-08T11:26:14;99665.72;;;35.32;32.24
17615;BME280;8926;49.720;6.576;2023-07-08T11:28:40;99666.84;;;35.36;32.57
17615;BME280;8926;49.720;6.576;2023-07-08T11:31:06;99662.31;;;35.42;32.73
17615;BME280;8926;49.720;6.576;2023-07-08T11:33:32;99656.84;;;35.59;32.12
17615;BME280;8926;49.720;6.576;2023-07-08T11:36:00;99653.91;;;35.65;31.87
17615;BME280;8926;49.720;6.576;2023-07-08T11:38:28;99663.09;;;35.59;32.33
17615;BME280;8926;49.720;6.576;2023-07-08T11:40:59;99653.84;;;35.60;32.56
17615;BME280;8926;49.720;6.576;2023-07-08T11:43:35;99656.13;;;35.68;32.25
17615;BME280;8926;49.720;6.576;2023-07-08T11:46:05;99648.47;;;35.44;32.06
17615;BME280;8926;49.720;6.576;2023-07-08T11:48:40;99647.44;;;35.28;32.42
17615;BME280;8926;49.720;6.576;2023-07-08T11:51:08;99652.41;;;34.97;32.78
17615;BME280;8926;49.720;6.576;2023-07-08T11:53:37;99659.81;;;34.85;33.17
17615;BME280;8926;49.720;6.576;2023-07-08T11:56:18;99656.28;;;35.01;33.44
17615;BME280;8926;49.720;6.576;2023-07-08T12:01:40;99655.13;;;35.31;32.78
17615;BME280;8926;49.720;6.576;2023-07-08T12:04:24;99648.50;;;35.27;32.89
17615;BME280;8926;49.720;6.576;2023-07-08T12:09:38;99658.22;;;35.23;32.27
17615;BME280;8926;49.720;6.576;2023-07-08T12:12:17;99651.84;;;34.95;32.48
17615;BME280;8926;49.720;6.576;2023-07-08T12:14:44;99648.38;;;35.00;33.28
17615;BME280;8926;49.720;6.576;2023-07-08T12:17:14;99641.63;;;35.02;33.16
17615;BME280;8926;49.720;6.576;2023-07-08T12:19:42;99646.91;;;34.92;32.73
17615;BME280;8926;49.720;6.576;2023-07-08T12:22:10;99633.06;;;34.94;33.35
17615;BME280;8926;49.720;6.576;2023-07-08T12:24:37;99639.75;;;34.86;33.20
17615;BME280;8926;49.720;6.576;2023-07-08T12:27:03;99637.53;;;35.00;32.84
17615;BME280;8926;49.720;6.576;2023-07-08T12:29:28;99634.56;;;35.01;32.97
17615;BME280;8926;49.720;6.576;2023-07-08T12:31:54;99636.19;;;35.02;33.43
17615;BME280;8926;49.720;6.576;2023-07-08T12:34:20;99631.38;;;35.10;32.68
17615;BME280;8926;49.720;6.576;2023-07-08T12:36:46;99636.81;;;35.10;32.33
17615;BME280;8926;49.720;6.576;2023-07-08T12:39:14;99634.56;;;35.01;32.76
17615;BME280;8926;49.720;6.576;2023-07-08T12:41:42;99630.97;;;34.79;33.27
17615;BME280;8926;49.720;6.576;2023-07-08T12:44:16;99633.38;;;34.64;33.14
17615;BME280;8926;49.720;6.576;2023-07-08T12:46:44;99629.69;;;34.70;32.92
17615;BME280;8926;49.720;6.576;2023-07-08T12:49:09;99629.78;;;34.75;33.34
17615;BME280;8926;49.720;6.576;2023-07-08T12:51:35;99620.97;;;34.85;33.35
17615;BME280;8926;49.720;6.576;2023-07-08T12:54:00;99608.38;;;34.95;33.22
17615;BME280;8926;49.720;6.576;2023-07-08T12:56:25;99627.81;;;34.87;32.03
17615;BME280;8926;49.720;6.576;2023-07-08T12:58:53;99617.13;;;34.81;31.83
17615;BME280;8926;49.720;6.576;2023-07-08T13:01:30;99617.28;;;34.74;31.85
17615;BME280;8926;49.720;6.576;2023-07-08T13:04:00;99620.81;;;34.75;31.42
17615;BME280;8926;49.720;6.576;2023-07-08T13:06:30;99621.06;;;34.73;31.90
17615;BME280;8926;49.720;6.576;2023-07-08T13:09:05;99626.63;;;34.66;32.63
17615;BME280;8926;49.720;6.576;2023-07-08T13:11:32;99619.91;;;34.69;32.80
17615;BME280;8926;49.720;6.576;2023-07-08T13:13:59;99616.88;;;34.82;32.70
17615;BME280;8926;49.720;6.576;2023-07-08T13:16:31;99622.38;;;34.87;31.94
17615;BME280;8926;49.720;6.576;2023-07-08T13:18:57;99614.97;;;34.83;32.72
17615;BME280;8926;49.720;6.576;2023-07-08T13:21:22;99613.81;;;34.95;32.40
17615;BME280;8926;49.720;6.576;2023-07-08T13:23:49;99611.59;;;34.92;32.76
17615;BME280;8926;49.720;6.576;2023-07-08T13:26:23;99612.53;;;34.81;32.92
17615;BME280;8926;49.720;6.576;2023-07-08T13:28:49;99615.13;;;34.76;33.48
17615;BME280;8926;49.720;6.576;2023-07-08T13:31:22;99610.50;;;34.60;32.94
17615;BME280;8926;49.720;6.576;2023-07-08T13:33:52;99616.53;;;34.45;34.11
17615;BME280;8926;49.720;6.576;2023-07-08T13:36:21;99615.31;;;34.53;33.76
17615;BME280;8926;49.720;6.576;2023-07-08T13:38:46;99612.97;;;34.61;33.99
17615;BME280;8926;49.720;6.576;2023-07-08T13:41:19;99606.31;;;34.69;33.79
17615;BME280;8926;49.720;6.576;2023-07-08T13:43:46;99601.97;;;34.68;33.79
17615;BME280;8926;49.720;6.576;2023-07-08T13:52:08;99594.59;;;34.80;31.66
17615;BME280;8926;49.720;6.576;2023-07-08T13:54:45;99609.22;;;34.96;32.56
17615;BME280;8926;49.720;6.576;2023-07-08T13:57:17;99609.03;;;35.02;30.37
17615;BME280;8926;49.720;6.576;2023-07-08T13:59:43;99607.97;;;35.03;30.65
17615;BME280;8926;49.720;6.576;2023-07-08T14:02:15;99609.22;;;34.96;30.15
17615;BME280;8926;49.720;6.576;2023-07-08T14:04:41;99610.69;;;34.87;30.47
17615;BME280;8926;49.720;6.576;2023-07-08T14:07:15;99615.50;;;34.80;30.48
17615;BME280;8926;49.720;6.576;2023-07-08T14:09:41;99616.03;;;34.65;30.00
17615;BME280;8926;49.720;6.576;2023-07-08T14:12:06;99624.03;;;34.55;30.40
17615;BME280;8926;49.720;6.576;2023-07-08T14:14:32;99627.81;;;34.54;30.60
17615;BME280;8926;49.720;6.576;2023-07-08T14:16:57;99623.50;;;34.58;31.07